TimeCST,TemperatureF,Dew PointF,Humidity,Sea Level PressureIn,VisibilityMPH,Wind Direction,Wind SpeedMPH,Gust SpeedMPH,PrecipitationIn,Events,Conditions,WindDirDegrees,DateUTC
12:53 AM,28.9,26.1,89,30.15,8.0,WNW,5.8,-,N/A,,Clear,290,2013-03-08 06:53:00
1:53 AM,28.0,25.0,88,30.16,8.0,WNW,6.9,-,N/A,,Clear,300,2013-03-08 07:53:00
2:53 AM,26.1,24.1,92,30.15,6.0,WNW,8.1,-,N/A,,Clear,300,2013-03-08 08:53:00
3:53 AM,26.1,24.1,92,30.15,5.0,WNW,5.8,-,N/A,,Clear,300,2013-03-08 09:53:00
4:48 AM,24.8,23.0,93,30.12,3.0,NNW,4.6,-,N/A,,Scattered Clouds,340,2013-03-08 10:48:00
4:53 AM,25.0,24.1,96,30.16,3.0,North,4.6,-,N/A,,Mostly Cloudy,350,2013-03-08 10:53:00
5:09 AM,26.6,24.8,93,30.12,3.0,Calm,Calm,-,N/A,,Overcast,0,2013-03-08 11:09:00
5:53 AM,27.0,25.0,92,30.14,3.0,NE,5.8,-,N/A,,Overcast,40,2013-03-08 11:53:00
6:01 AM,26.6,24.8,93,30.10,3.0,NNE,4.6,-,N/A,,Overcast,30,2013-03-08 12:01:00
6:14 AM,26.6,26.6,100,30.11,2.5,NNE,3.5,-,N/A,,Overcast,20,2013-03-08 12:14:00
6:20 AM,28.4,26.6,93,30.11,1.8,NNE,9.2,-,N/A,,Overcast,20,2013-03-08 12:20:00
6:32 AM,28.4,26.6,93,30.11,0.5,NE,9.2,-,N/A,Fog,Light Freezing Fog,40,2013-03-08 12:32:00
6:53 AM,28.0,26.1,92,30.14,0.2,NNE,10.4,-,N/A,Fog,Light Freezing Fog,30,2013-03-08 12:53:00
7:53 AM,28.0,26.1,92,30.14,0.2,NE,5.8,-,N/A,Fog,Light Freezing Fog,50,2013-03-08 13:53:00
8:53 AM,28.9,28.0,96,30.15,0.2,ENE,5.8,-,N/A,Fog,Light Freezing Fog,70,2013-03-08 14:53:00
9:53 AM,30.0,28.9,96,30.14,0.5,East,6.9,-,N/A,Fog,Light Freezing Fog,100,2013-03-08 15:53:00
10:40 AM,30.2,30.2,100,30.09,1.2,East,3.5,-,N/A,,Overcast,100,2013-03-08 16:40:00
10:53 AM,30.9,30.0,96,30.14,1.8,NE,3.5,-,N/A,,Overcast,40,2013-03-08 16:53:00
10:59 AM,30.2,30.2,100,30.08,2.5,Calm,Calm,-,N/A,,Overcast,0,2013-03-08 16:59:00
11:09 AM,30.2,30.2,100,30.08,3.0,North,4.6,-,N/A,,Overcast,350,2013-03-08 17:09:00
11:46 AM,33.8,30.2,87,30.07,6.0,NNE,6.9,-,N/A,,Overcast,20,2013-03-08 17:46:00
11:53 AM,33.1,30.0,89,30.14,7.0,Variable,3.5,-,N/A,,Overcast,0,2013-03-08 17:53:00
12:04 PM,35.6,30.2,81,30.08,8.0,ENE,5.8,-,N/A,,Mostly Cloudy,70,2013-03-08 18:04:00
12:20 PM,35.6,30.2,81,30.05,9.0,ENE,5.8,-,N/A,,Partly Cloudy,60,2013-03-08 18:20:00
12:53 PM,42.1,30.9,65,30.09,10.0,North,6.9,-,N/A,,Clear,360,2013-03-08 18:53:00
1:53 PM,41.0,30.9,67,30.03,10.0,NE,11.5,-,N/A,,Mostly Cloudy,40,2013-03-08 19:53:00
2:53 PM,43.0,30.9,62,30.01,10.0,NE,12.7,-,N/A,,Mostly Cloudy,50,2013-03-08 20:53:00
3:53 PM,41.0,32.0,70,29.97,8.0,NE,17.3,-,N/A,,Clear,40,2013-03-08 21:53:00
4:53 PM,41.0,33.1,73,29.96,7.0,NE,11.5,-,N/A,,Clear,50,2013-03-08 22:53:00
5:53 PM,41.0,33.1,73,29.96,8.0,ENE,12.7,-,N/A,,Clear,60,2013-03-08 23:53:00
6:53 PM,37.0,32.0,82,29.97,7.0,NE,6.9,-,N/A,,Clear,50,2013-03-09 00:53:00
7:53 PM,36.0,32.0,86,29.96,6.0,NE,8.1,-,N/A,,Mostly Cloudy,50,2013-03-09 01:53:00
8:53 PM,35.1,32.0,89,29.95,5.0,NNE,6.9,-,N/A,,Overcast,20,2013-03-09 02:53:00
9:53 PM,34.0,30.9,89,29.94,5.0,North,8.1,-,N/A,,Overcast,360,2013-03-09 03:53:00
10:53 PM,33.1,30.0,89,29.92,4.0,North,6.9,-,N/A,,Overcast,360,2013-03-09 04:53:00
11:32 PM,33.8,30.2,87,29.84,4.0,North,6.9,-,N/A,,Overcast,360,2013-03-09 05:32:00
11:53 PM,33.1,30.9,92,29.89,4.0,North,5.8,-,N/A,,Overcast,360,2013-03-09 05:53:00